Time;durP1;ratioP1;P1;durP2;ratioP2;P2;SDS_P1;SDS_P2;PMS_P1;PMS_P2;Temp;Humidity;BMP_temperature;BMP_pressure;BME280_temperature;BME280_humidity;BME280_pressure;Samples;Min_cycle;Max_cycle;Signal;HPM_P1;HPM_P2
2023/06/06 00:00:19;;;;;;;2.80;1.20;;;25.90;44.70;;;;;;5041117;28;20466;-66
2023/06/06 00:02:45;;;;;;;2.83;1.40;;;25.90;44.70;;;;;;5037374;28;20056;-66
2023/06/06 00:05:13;;;;;;;2.53;1.27;;;25.90;44.70;;;;;;5022318;28;20112;-66
2023/06/06 00:07:40;;;;;;;2.70;1.30;;;25.90;44.60;;;;;;5038472;28;20532;-66
2023/06/06 00:10:10;;;;;;;2.00;1.20;;;25.90;44.60;;;;;;5038477;28;20108;-66
2023/06/06 00:12:36;;;;;;;3.00;1.20;;;25.90;44.60;;;;;;5006564;28;20637;-66
2023/06/06 00:15:03;;;;;;;2.58;1.27;;;25.90;44.60;;;;;;5039323;28;20044;-66
2023/06/06 00:17:29;;;;;;;2.25;1.20;;;25.80;44.50;;;;;;5037982;28;20029;-66
2023/06/06 00:19:56;;;;;;;2.70;1.30;;;25.90;44.60;;;;;;5037065;28;20568;-66
2023/06/06 00:22:23;;;;;;;2.33;1.08;;;25.80;44.50;;;;;;5040080;28;20133;-66
2023/06/06 00:24:49;;;;;;;1.85;1.10;;;25.80;44.50;;;;;;5032322;28;20029;-66
2023/06/06 00:27:15;;;;;;;3.05;1.30;;;25.80;44.50;;;;;;5020784;28;20036;-66
2023/06/06 00:29:41;;;;;;;3.03;1.50;;;25.80;44.50;;;;;;5006258;28;20021;-66
2023/06/06 00:32:07;;;;;;;3.25;1.25;;;25.80;44.50;;;;;;5023619;28;20452;-66
2023/06/06 00:34:32;;;;;;;2.83;1.40;;;25.80;44.50;;;;;;5039114;28;20492;-66
2023/06/06 00:36:58;;;;;;;2.33;1.20;;;25.80;44.60;;;;;;5037653;28;20069;-66
2023/06/06 00:39:23;;;;;;;2.20;1.30;;;25.80;44.60;;;;;;5038703;28;20021;-66
2023/06/06 00:41:49;;;;;;;1.73;1.00;;;25.80;44.60;;;;;;5035838;28;20109;-66
2023/06/06 00:44:15;;;;;;;2.33;1.30;;;25.70;44.50;;;;;;5035629;28;20203;-66
2023/06/06 00:46:42;;;;;;;2.00;1.10;;;25.70;44.60;;;;;;5038150;28;20036;-66
2023/06/06 00:49:10;;;;;;;1.95;1.00;;;25.70;44.60;;;;;;5039633;28;20388;-66
2023/06/06 00:51:37;;;;;;;2.00;1.10;;;25.70;44.60;;;;;;5032384;28;20033;-66
2023/06/06 00:54:06;;;;;;;2.38;1.20;;;25.70;44.60;;;;;;5038702;28;20084;-66
2023/06/06 00:56:35;;;;;;;2.67;1.20;;;25.70;44.60;;;;;;5040969;28;20449;-66
2023/06/06 00:59:01;;;;;;;2.08;1.15;;;25.60;44.60;;;;;;5038571;28;20083;-66
2023/06/06 01:01:28;;;;;;;2.08;1.17;;;25.60;44.60;;;;;;5038439;28;20079;-66
2023/06/06 01:03:57;;;;;;;2.45;1.25;;;25.60;44.60;;;;;;5032122;28;20481;-66
2023/06/06 01:06:23;;;;;;;2.22;1.10;;;25.60;44.50;;;;;;5030871;28;20063;-66
2023/06/06 01:08:49;;;;;;;2.90;1.13;;;25.60;44.60;;;;;;5036740;28;20033;-66
2023/06/06 01:11:25;;;;;;;2.47;1.20;;;25.60;44.60;;;;;;5031292;28;20075;-66
2023/06/06 01:14:05;;;;;;;2.60;1.23;;;25.60;44.60;;;;;;5035349;28;20018;-66
2023/06/06 01:16:33;;;;;;;2.70;1.20;;;25.50;44.60;;;;;;5036195;28;20026;-66
2023/06/06 01:19:04;;;;;;;1.42;1.00;;;25.50;44.60;;;;;;5036182;28;20121;-66
2023/06/06 01:21:40;;;;;;;1.50;0.90;;;25.50;44.60;;;;;;5032031;28;20036;-66
2023/06/06 01:24:06;;;;;;;2.38;1.20;;;25.50;44.60;;;;;;5034948;28;20512;-66
2023/06/06 01:26:32;;;;;;;2.42;1.10;;;25.40;44.60;;;;;;5035597;28;20034;-66
2023/06/06 01:28:57;;;;;;;1.67;0.90;;;25.50;44.70;;;;;;5018848;28;20022;-66
2023/06/06 01:31:30;;;;;;;2.15;1.20;;;25.40;44.60;;;;;;5036050;28;20025;-66
2023/06/06 01:34:04;;;;;;;1.73;1.05;;;25.50;44.70;;;;;;5036655;28;20060;-66
2023/06/06 01:36:41;;;;;;;1.77;1.10;;;25.40;44.60;;;;;;5032921;28;20516;-67
2023/06/06 01:39:12;;;;;;;1.90;1.17;;;25.40;44.70;;;;;;5006914;28;20354;-66
2023/06/06 01:41:39;;;;;;;1.65;1.00;;;25.40;44.70;;;;;;5035050;28;20030;-66
2023/06/06 01:44:08;;;;;;;2.15;1.00;;;25.40;44.70;;;;;;5036441;28;20042;-66
2023/06/06 01:46:35;;;;;;;1.83;1.10;;;25.40;44.70;;;;;;5037274;28;20102;-66
2023/06/06 01:49:01;;;;;;;2.20;1.10;;;25.40;44.70;;;;;;5035320;28;20104;-66
2023/06/06 01:51:27;;;;;;;1.95;1.10;;;25.30;44.70;;;;;;5037198;28;20104;-66
2023/06/06 01:53:58;;;;;;;2.05;1.00;;;25.40;44.70;;;;;;5034398;28;20380;-66
2023/06/06 01:56:25;;;;;;;1.88;1.20;;;25.30;44.70;;;;;;5036690;28;20417;-66
2023/06/06 01:58:51;;;;;;;1.65;1.20;;;25.30;44.70;;;;;;5035842;28;20029;-66
2023/06/06 02:01:17;;;;;;;1.58;0.90;;;25.30;44.70;;;;;;5036110;28;20029;-66
2023/06/06 02:03:43;;;;;;;1.67;1.00;;;25.30;44.70;;;;;;5019596;28;20504;-66
2023/06/06 02:06:08;;;;;;;1.42;1.00;;;25.30;44.70;;;;;;5014934;28;20026;-66
2023/06/06 02:08:34;;;;;;;2.25;1.00;;;25.30;44.70;;;;;;5017886;28;20404;-66
2023/06/06 02:11:00;;;;;;;1.73;0.93;;;25.30;44.70;;;;;;5035139;28;20028;-66
2023/06/06 02:13:26;;;;;;;2.40;1.00;;;25.20;44.70;;;;;;5018460;28;20037;-66
2023/06/06 02:15:52;;;;;;;1.85;1.20;;;25.20;44.70;;;;;;5033146;28;20025;-66
2023/06/06 02:18:17;;;;;;;1.70;1.00;;;25.20;44.70;;;;;;5023730;28;20025;-66
2023/06/06 02:20:43;;;;;;;1.75;1.10;;;25.20;44.70;;;;;;5035655;28;20124;-66
2023/06/06 02:23:09;;;;;;;2.08;1.00;;;25.20;44.80;;;;;;5031188;28;20056;-66
2023/06/06 02:25:37;;;;;;;1.50;0.93;;;25.20;44.80;;;;;;5017128;28;20473;-66
2023/06/06 02:28:03;;;;;;;2.50;1.13;;;25.20;44.70;;;;;;5037481;28;20422;-66
2023/06/06 02:30:30;;;;;;;1.98;1.10;;;25.10;44.70;;;;;;5035595;28;20045;-66
2023/06/06 02:32:56;;;;;;;1.77;1.10;;;25.20;45.10;;;;;;5030637;28;20477;-66
2023/06/06 02:35:22;;;;;;;2.08;1.10;;;25.10;44.80;;;;;;5032829;28;20120;-66
2023/06/06 02:37:48;;;;;;;1.77;1.00;;;25.10;44.80;;;;;;5034029;28;20516;-66
2023/06/06 02:40:13;;;;;;;1.75;1.00;;;25.10;44.80;;;;;;5036851;28;20029;-66
2023/06/06 02:42:39;;;;;;;1.90;1.13;;;25.10;44.80;;;;;;5018473;28;20099;-66
2023/06/06 02:45:06;;;;;;;2.17;1.20;;;25.10;44.80;;;;;;5018597;28;20064;-66
2023/06/06 02:47:32;;;;;;;2.03;1.00;;;25.10;44.80;;;;;;5034690;28;20021;-66
2023/06/06 02:49:58;;;;;;;1.70;1.00;;;25.10;44.80;;;;;;5036003;28;20028;-66
2023/06/06 02:52:24;;;;;;;1.63;1.13;;;25.10;44.80;;;;;;5033302;28;20029;-66
2023/06/06 02:54:50;;;;;;;1.75;1.00;;;25.10;44.80;;;;;;5032457;28;20052;-66
2023/06/06 02:57:16;;;;;;;1.58;0.90;;;25.00;44.80;;;;;;5034383;28;20033;-66
2023/06/06 02:59:42;;;;;;;1.35;1.00;;;25.10;44.80;;;;;;5033019;28;20186;-66
2023/06/06 03:02:09;;;;;;;1.92;0.98;;;25.10;44.90;;;;;;5036072;28;20866;-66
2023/06/06 03:04:35;;;;;;;1.52;0.90;;;25.00;44.80;;;;;;5018551;28;20033;-66
2023/06/06 03:07:01;;;;;;;1.45;0.88;;;25.00;44.80;;;;;;5030577;28;20034;-66
2023/06/06 03:09:29;;;;;;;1.20;0.88;;;25.00;44.80;;;;;;5028234;28;20024;-66
2023/06/06 03:11:55;;;;;;;1.77;1.00;;;25.00;44.90;;;;;;5033689;28;20029;-66
2023/06/06 03:14:21;;;;;;;1.70;1.10;;;25.00;44.90;;;;;;5019145;28;20461;-66
2023/06/06 03:16:51;;;;;;;1.83;0.90;;;25.00;44.90;;;;;;5035868;28;20467;-66
2023/06/06 03:19:17;;;;;;;1.45;1.00;;;25.00;44.90;;;;;;5032604;28;20029;-66
2023/06/06 03:21:43;;;;;;;1.77;1.23;;;24.90;44.90;;;;;;5033073;28;20032;-66
2023/06/06 03:24:09;;;;;;;1.50;1.10;;;24.90;44.90;;;;;;5033269;28;20135;-66
2023/06/06 03:26:36;;;;;;;1.77;1.05;;;24.90;44.90;;;;;;5032605;28;20029;-66
2023/06/06 03:29:02;;;;;;;1.63;1.00;;;24.90;44.90;;;;;;5034600;28;20017;-66
2023/06/06 03:31:29;;;;;;;2.13;1.10;;;24.90;44.90;;;;;;5036541;28;20022;-66
2023/06/06 03:33:55;;;;;;;1.40;0.90;;;24.90;44.90;;;;;;5039736;28;20013;-66
2023/06/06 03:36:21;;;;;;;1.48;1.00;;;24.90;44.90;;;;;;5036682;28;20492;-66
2023/06/06 03:38:46;;;;;;;1.48;1.00;;;24.90;44.90;;;;;;5042736;28;20021;-66
2023/06/06 03:41:12;;;;;;;1.63;1.00;;;24.90;45.00;;;;;;5036190;28;20093;-66
2023/06/06 03:43:38;;;;;;;2.10;1.20;;;24.90;44.90;;;;;;5040389;28;20022;-66
2023/06/06 03:46:03;;;;;;;1.80;1.00;;;24.90;44.90;;;;;;5020751;28;20440;-66
2023/06/06 03:48:29;;;;;;;1.50;0.90;;;24.90;45.00;;;;;;5039032;28;20021;-66
2023/06/06 03:50:55;;;;;;;1.63;1.00;;;24.80;44.90;;;;;;5033751;28;20311;-66
2023/06/06 03:53:21;;;;;;;1.73;1.10;;;24.80;45.00;;;;;;5006790;28;20033;-66
2023/06/06 03:55:46;;;;;;;1.20;0.90;;;24.80;45.00;;;;;;5037193;28;20446;-66
2023/06/06 03:58:16;;;;;;;1.42;1.00;;;24.80;45.00;;;;;;5035110;28;20527;-66
2023/06/06 04:00:44;;;;;;;1.38;0.90;;;24.80;45.00;;;;;;5039052;28;20535;-66
2023/06/06 04:03:10;;;;;;;1.17;0.85;;;24.80;45.00;;;;;;5018566;28;20124;-66
2023/06/06 04:05:36;;;;;;;2.03;1.10;;;24.80;45.00;;;;;;5036679;28;20116;-66
2023/06/06 04:08:01;;;;;;;1.40;0.95;;;24.80;45.00;;;;;;5034756;28;20037;-66
2023/06/06 04:10:27;;;;;;;2.15;1.05;;;24.80;45.50;;;;;;5040768;28;20089;-66
2023/06/06 04:12:53;;;;;;;1.67;0.90;;;24.80;45.00;;;;;;5039962;28;20037;-66
2023/06/06 04:15:18;;;;;;;1.77;1.00;;;24.70;45.00;;;;;;5039308;28;20032;-66
2023/06/06 04:17:45;;;;;;;1.40;0.90;;;24.70;45.00;;;;;;5038949;28;20024;-66
2023/06/06 04:20:11;;;;;;;1.08;0.90;;;24.70;45.00;;;;;;5036994;28;20029;-66
2023/06/06 04:22:38;;;;;;;1.27;1.10;;;24.70;45.00;;;;;;5038361;28;20037;-66
2023/06/06 04:25:04;;;;;;;1.80;1.00;;;24.70;45.00;;;;;;5044518;28;20482;-66
2023/06/06 04:27:31;;;;;;;1.10;0.90;;;24.70;45.00;;;;;;5021744;28;20031;-66
2023/06/06 04:30:01;;;;;;;2.35;0.93;;;24.70;45.00;;;;;;5034650;28;20040;-66
2023/06/06 04:32:26;;;;;;;1.13;0.80;;;24.70;45.10;;;;;;5034692;28;20037;-66
2023/06/06 04:34:52;;;;;;;1.23;0.95;;;24.70;45.10;;;;;;5040348;28;20441;-66
2023/06/06 04:37:19;;;;;;;1.10;0.88;;;24.70;45.10;;;;;;5030987;28;20034;-66
2023/06/06 04:39:45;;;;;;;1.50;0.90;;;24.70;45.10;;;;;;5033657;28;20088;-66
2023/06/06 04:42:12;;;;;;;1.50;1.08;;;24.60;45.00;;;;;;5021696;28;20025;-66
2023/06/06 04:44:41;;;;;;;1.20;1.00;;;24.70;45.10;;;;;;5034428;28;20043;-66
2023/06/06 04:47:10;;;;;;;1.75;1.13;;;24.60;45.10;;;;;;5037061;28;20021;-66
2023/06/06 04:49:39;;;;;;;1.15;0.90;;;24.60;45.10;;;;;;5036331;28;20025;-66
2023/06/06 04:52:06;;;;;;;1.65;1.00;;;24.60;45.10;;;;;;5037028;28;20472;-66
2023/06/06 04:54:33;;;;;;;1.35;0.90;;;24.60;45.10;;;;;;5037422;28;20109;-66
2023/06/06 04:57:02;;;;;;;1.30;0.90;;;24.60;45.10;;;;;;5032329;28;20978;-66
2023/06/06 04:59:28;;;;;;;1.17;1.00;;;24.60;45.10;;;;;;5019105;28;20022;-66
2023/06/06 05:01:57;;;;;;;2.10;0.90;;;24.60;45.10;;;;;;5034194;28;20904;-66
2023/06/06 05:04:24;;;;;;;1.27;0.93;;;24.60;45.10;;;;;;5035818;28;20017;-66
2023/06/06 05:06:50;;;;;;;1.35;0.95;;;24.50;45.10;;;;;;5037868;28;20029;-66
2023/06/06 05:09:16;;;;;;;1.52;1.00;;;24.50;45.10;;;;;;5038134;28;20136;-65
2023/06/06 05:11:50;;;;;;;1.60;1.10;;;24.50;45.10;;;;;;5018222;28;20152;-65
2023/06/06 05:14:16;;;;;;;1.23;0.98;;;24.50;45.10;;;;;;5036697;28;20492;-66
2023/06/06 05:16:46;;;;;;;1.20;0.90;;;24.50;45.10;;;;;;5034653;28;20029;-65
2023/06/06 05:19:13;;;;;;;1.55;1.10;;;24.50;45.10;;;;;;5024755;28;20038;-65
2023/06/06 05:21:38;;;;;;;1.55;0.98;;;24.50;45.10;;;;;;5035388;28;20107;-66
2023/06/06 05:24:04;;;;;;;1.58;1.00;;;24.50;45.10;;;;;;5036267;28;20053;-65
2023/06/06 05:26:30;;;;;;;1.27;0.88;;;24.50;45.10;;;;;;5035336;28;20039;-65
2023/06/06 05:28:55;;;;;;;1.50;1.00;;;24.50;45.10;;;;;;5034728;28;20029;-65
2023/06/06 05:31:21;;;;;;;2.35;1.23;;;24.50;45.10;;;;;;5035431;28;20033;-66
2023/06/06 05:33:47;;;;;;;2.10;1.40;;;24.50;45.00;;;;;;5037506;28;20106;-65
2023/06/06 05:36:13;;;;;;;2.58;1.60;;;24.50;45.00;;;;;;5036133;28;20333;-66
2023/06/06 05:38:39;;;;;;;4.10;1.80;;;24.50;45.00;;;;;;5021003;28;20029;-65
2023/06/06 05:41:05;;;;;;;3.40;1.90;;;24.50;44.80;;;;;;5031135;28;20052;-66
2023/06/06 05:43:31;;;;;;;2.90;2.00;;;24.50;44.70;;;;;;5033772;28;20104;-65
2023/06/06 05:45:57;;;;;;;3.53;1.92;;;24.40;44.60;;;;;;5035486;28;20077;-65
2023/06/06 05:48:23;;;;;;;3.17;2.15;;;24.40;44.50;;;;;;5038315;28;20033;-65
2023/06/06 05:50:48;;;;;;;2.70;2.00;;;24.40;44.30;;;;;;5034592;28;20592;-65
2023/06/06 05:53:14;;;;;;;2.80;2.00;;;24.40;44.20;;;;;;5033062;28;20477;-65
2023/06/06 05:55:40;;;;;;;3.67;2.15;;;24.40;44.10;;;;;;5036564;28;20036;-65
2023/06/06 05:58:05;;;;;;;3.13;2.30;;;24.40;44.00;;;;;;5032828;28;20469;-65
2023/06/06 06:00:33;;;;;;;2.75;2.00;;;24.40;43.90;;;;;;5034520;28;20523;-65
2023/06/06 06:03:02;;;;;;;2.85;2.00;;;24.40;43.80;;;;;;5027413;28;20038;-66
2023/06/06 06:05:29;;;;;;;3.25;2.20;;;24.40;43.80;;;;;;5030408;28;20593;-66
2023/06/06 06:07:59;;;;;;;3.33;1.88;;;24.30;43.70;;;;;;5015926;28;20017;-65
2023/06/06 06:10:32;;;;;;;;;;;24.30;43.70;;;;;;5034003;28;20488;-65
2023/06/06 06:12:58;;;;;;;2.90;2.20;;;24.30;43.50;;;;;;5035001;28;20369;-66
2023/06/06 06:15:25;;;;;;;2.83;2.10;;;24.30;43.60;;;;;;5036151;28;20024;-65
2023/06/06 06:17:50;;;;;;;2.83;1.90;;;24.30;43.60;;;;;;5031366;28;20477;-65
2023/06/06 06:20:17;;;;;;;3.08;2.10;;;24.30;43.70;;;;;;5034149;28;20047;-65
2023/06/06 06:22:44;;;;;;;2.85;2.10;;;24.30;44.10;;;;;;5033399;28;20028;-65
2023/06/06 06:25:13;;;;;;;3.15;2.20;;;24.30;43.50;;;;;;5034362;28;20100;-65
2023/06/06 06:27:40;;;;;;;3.75;2.00;;;24.20;43.40;;;;;;5030763;28;20081;-65
2023/06/06 06:30:06;;;;;;;3.28;2.13;;;24.20;43.40;;;;;;5036482;28;20079;-65
2023/06/06 06:32:33;;;;;;;4.00;2.10;;;24.20;43.30;;;;;;5034412;28;20017;-65
2023/06/06 06:35:02;;;;;;;3.63;2.03;;;24.20;43.30;;;;;;5037656;28;20025;-65
2023/06/06 06:37:32;;;;;;;3.45;2.13;;;24.20;43.40;;;;;;5018710;28;20068;-65
2023/06/06 06:39:58;;;;;;;2.40;1.80;;;24.20;43.60;;;;;;5035137;28;20449;-65
2023/06/06 06:42:24;;;;;;;3.22;2.00;;;24.20;43.60;;;;;;5037988;28;20044;-65
2023/06/06 06:44:50;;;;;;;2.67;1.88;;;24.20;43.60;;;;;;5034277;28;20389;-66
2023/06/06 06:47:16;;;;;;;2.40;1.73;;;24.20;43.70;;;;;;5034422;28;20029;-65
2023/06/06 06:49:42;;;;;;;3.30;2.10;;;24.10;43.70;;;;;;5033757;28;20021;-65
2023/06/06 06:52:11;;;;;;;2.40;1.80;;;24.10;43.80;;;;;;5033341;28;20029;-66
2023/06/06 06:54:57;;;;;;;3.28;2.20;;;24.10;43.90;;;;;;5033756;28;20034;-65
2023/06/06 06:57:23;;;;;;;2.80;1.98;;;24.10;43.90;;;;;;5036504;28;20029;-66
2023/06/06 06:59:49;;;;;;;2.80;1.90;;;24.10;44.00;;;;;;5034827;28;20107;-65
2023/06/06 07:02:15;;;;;;;2.65;1.95;;;24.10;44.00;;;;;;5019790;28;20055;-66
2023/06/06 07:04:41;;;;;;;3.35;2.10;;;24.10;44.10;;;;;;5017078;28;20037;-65
2023/06/06 07:07:07;;;;;;;2.97;2.05;;;24.10;44.10;;;;;;5036366;28;20453;-66
2023/06/06 07:09:32;;;;;;;3.17;2.03;;;24.10;44.20;;;;;;5033275;28;20036;-65
2023/06/06 07:11:58;;;;;;;2.58;1.83;;;24.10;44.20;;;;;;5032915;28;20361;-65
2023/06/06 07:14:28;;;;;;;3.08;2.22;;;24.10;44.20;;;;;;5032676;28;20026;-65
2023/06/06 07:16:54;;;;;;;2.80;1.90;;;24.10;44.20;;;;;;5000355;28;20049;-65
2023/06/06 07:19:20;;;;;;;2.58;1.65;;;24.10;44.30;;;;;;5036780;28;20032;-66
2023/06/06 07:21:46;;;;;;;2.65;1.70;;;24.10;44.30;;;;;;5037368;28;20461;-65
2023/06/06 07:24:12;;;;;;;2.63;1.75;;;24.10;44.30;;;;;;5035978;28;20043;-66
2023/06/06 07:26:37;;;;;;;2.42;1.83;;;24.10;44.30;;;;;;5035080;28;20029;-66
2023/06/06 07:29:03;;;;;;;2.67;1.73;;;24.10;44.40;;;;;;5033109;28;20469;-66
2023/06/06 07:31:30;;;;;;;2.60;1.80;;;24.10;44.40;;;;;;5034718;28;20029;-66
2023/06/06 07:33:55;;;;;;;2.90;1.90;;;24.10;44.40;;;;;;5035028;28;20096;-65
2023/06/06 07:36:21;;;;;;;2.80;1.80;;;24.10;44.40;;;;;;5037482;28;20117;-66
2023/06/06 07:38:47;;;;;;;2.25;1.60;;;24.10;44.50;;;;;;5038611;28;20337;-66
2023/06/06 07:41:12;;;;;;;2.40;1.80;;;24.10;44.50;;;;;;5035783;28;20055;-66
2023/06/06 07:43:38;;;;;;;2.55;1.80;;;24.10;44.50;;;;;;5018958;28;20049;-65
2023/06/06 07:46:04;;;;;;;2.40;1.80;;;24.10;44.50;;;;;;5036068;28;20074;-65
2023/06/06 07:48:30;;;;;;;2.53;1.75;;;24.10;44.50;;;;;;5005274;28;20050;-65
2023/06/06 07:50:56;;;;;;;2.90;1.92;;;24.10;44.60;;;;;;5035141;28;20974;-65
2023/06/06 07:53:21;;;;;;;2.50;1.90;;;24.10;44.60;;;;;;5035123;28;20109;-65
2023/06/06 07:55:48;;;;;;;2.35;1.75;;;24.10;44.50;;;;;;5033923;28;20075;-65
2023/06/06 07:58:13;;;;;;;2.90;1.95;;;24.10;44.60;;;;;;5017790;28;20052;-65
2023/06/06 08:00:44;;;;;;;3.67;1.90;;;24.10;44.60;;;;;;5035594;28;20492;-65
2023/06/06 08:03:11;;;;;;;2.60;1.80;;;24.10;44.60;;;;;;5032966;28;20475;-65
2023/06/06 08:05:38;;;;;;;2.28;1.70;;;24.10;44.60;;;;;;5016434;28;20025;-65
2023/06/06 08:08:06;;;;;;;2.35;1.70;;;24.10;44.70;;;;;;5032455;28;20036;-65
2023/06/06 08:10:32;;;;;;;2.42;1.60;;;24.10;44.70;;;;;;5036684;28;20493;-66
2023/06/06 08:12:57;;;;;;;3.00;1.60;;;24.00;44.60;;;;;;5037230;28;20108;-65
2023/06/06 08:15:24;;;;;;;2.40;1.67;;;24.10;44.70;;;;;;5032079;28;20155;-65
2023/06/06 08:17:50;;;;;;;2.50;1.80;;;24.10;44.70;;;;;;5038736;28;20122;-65
2023/06/06 08:20:16;;;;;;;2.60;1.77;;;24.10;44.70;;;;;;5039042;28;20467;-65
2023/06/06 08:22:50;;;;;;;2.60;1.83;;;24.10;44.70;;;;;;5037154;28;20408;-65
2023/06/06 08:25:16;;;;;;;2.45;1.70;;;24.10;44.70;;;;;;5024187;28;20040;-65
2023/06/06 08:27:42;;;;;;;2.70;1.67;;;24.00;44.70;;;;;;5039266;28;20037;-65
2023/06/06 08:30:08;;;;;;;2.50;1.80;;;24.00;44.70;;;;;;5037801;28;20424;-65
2023/06/06 08:32:34;;;;;;;2.58;1.80;;;24.00;44.70;;;;;;5038503;28;20027;-65
2023/06/06 08:35:03;;;;;;;2.65;1.65;;;24.00;44.70;;;;;;5038780;28;20147;-65
2023/06/06 08:37:30;;;;;;;2.63;1.70;;;24.00;44.70;;;;;;5023102;28;20030;-66
2023/06/06 08:39:56;;;;;;;2.67;1.80;;;24.00;44.70;;;;;;5034730;28;20037;-66
2023/06/06 08:42:22;;;;;;;2.85;2.00;;;24.00;44.70;;;;;;5037561;28;20044;-66
2023/06/06 08:44:50;;;;;;;2.28;1.50;;;24.00;44.70;;;;;;5037652;28;20481;-65
2023/06/06 08:47:17;;;;;;;2.33;1.60;;;24.00;44.70;;;;;;5022313;28;20033;-65
2023/06/06 08:49:43;;;;;;;2.10;1.60;;;24.00;44.80;;;;;;5039138;28;20560;-66
2023/06/06 08:52:09;;;;;;;2.25;1.48;;;24.00;44.80;;;;;;5022348;28;20063;-65
2023/06/06 08:54:37;;;;;;;2.30;1.50;;;24.00;44.80;;;;;;5036058;28;20111;-66
2023/06/06 08:57:08;;;;;;;2.70;1.92;;;24.00;44.80;;;;;;5034312;28;20148;-65
2023/06/06 08:59:42;;;;;;;2.22;1.50;;;24.00;44.80;;;;;;5038986;28;20099;-65
2023/06/06 09:02:08;;;;;;;2.28;1.63;;;24.00;44.70;;;;;;5038053;28;20249;-65
2023/06/06 09:04:34;;;;;;;2.10;1.42;;;24.00;44.80;;;;;;5038366;28;20128;-66
2023/06/06 09:07:05;;;;;;;2.80;1.85;;;24.00;44.70;;;;;;5038299;28;20614;-65
2023/06/06 09:09:35;;;;;;;2.58;1.63;;;24.00;44.80;;;;;;5035987;28;20369;-65
2023/06/06 09:12:00;;;;;;;2.38;1.75;;;24.00;44.80;;;;;;5034316;28;20026;-66
2023/06/06 09:14:26;;;;;;;2.30;1.50;;;24.00;44.80;;;;;;5035997;28;20037;-65
2023/06/06 09:16:52;;;;;;;2.15;1.55;;;24.00;44.80;;;;;;5036417;28;20484;-65
2023/06/06 09:19:24;;;;;;;2.10;1.50;;;24.00;44.80;;;;;;5036222;28;20032;-66
2023/06/06 09:21:50;;;;;;;2.22;1.58;;;24.00;44.70;;;;;;5036297;28;20430;-66
2023/06/06 09:24:17;;;;;;;2.60;1.70;;;24.00;44.80;;;;;;5021306;28;20044;-66
2023/06/06 09:26:42;;;;;;;2.17;1.52;;;24.00;44.70;;;;;;5037798;28;20027;-66
2023/06/06 09:29:11;;;;;;;2.00;1.50;;;24.00;44.70;;;;;;5020129;28;20031;-65
2023/06/06 09:31:40;;;;;;;2.35;1.73;;;24.00;44.70;;;;;;5032848;28;20598;-66
2023/06/06 09:34:08;;;;;;;2.45;1.70;;;24.00;44.70;;;;;;5021041;28;20551;-66
2023/06/06 09:36:34;;;;;;;2.05;1.40;;;24.00;44.70;;;;;;5036788;28;20071;-66
2023/06/06 09:39:13;;;;;;;2.33;1.60;;;24.00;44.80;;;;;;5034362;28;20047;-66
2023/06/06 09:41:45;;;;;;;2.13;1.70;;;24.00;44.70;;;;;;5034105;28;20148;-65
2023/06/06 09:44:19;;;;;;;2.22;1.60;;;24.00;44.70;;;;;;5017086;28;20549;-65
2023/06/06 09:46:44;;;;;;;2.10;1.40;;;24.00;44.70;;;;;;5020855;28;20025;-65
2023/06/06 09:49:12;;;;;;;1.80;1.40;;;24.00;44.70;;;;;;5037094;28;20326;-66
2023/06/06 09:51:41;;;;;;;2.38;1.65;;;24.00;44.70;;;;;;5035574;28;20036;-66
2023/06/06 09:54:08;;;;;;;2.50;1.50;;;24.00;44.70;;;;;;5036996;28;20507;-65
2023/06/06 09:56:39;;;;;;;2.80;1.60;;;24.00;44.70;;;;;;5040135;28;20036;-66
2023/06/06 09:59:06;;;;;;;2.55;1.65;;;24.00;44.70;;;;;;5035842;28;20174;-66
2023/06/06 10:01:33;;;;;;;2.28;1.60;;;24.00;44.70;;;;;;5035704;28;20017;-66
2023/06/06 10:04:00;;;;;;;2.38;1.60;;;24.00;44.70;;;;;;5036466;28;20530;-66
2023/06/06 10:06:37;;;;;;;2.03;1.50;;;24.00;44.80;;;;;;5021539;28;20104;-65
2023/06/06 10:09:05;;;;;;;2.33;1.50;;;24.00;44.70;;;;;;5035052;28;20044;-65
2023/06/06 10:11:33;;;;;;;2.35;1.50;;;24.00;44.70;;;;;;5035363;28;20061;-66
2023/06/06 10:13:59;;;;;;;2.40;1.60;;;24.00;44.70;;;;;;5034708;28;20059;-65
2023/06/06 10:16:27;;;;;;;2.53;1.60;;;24.00;44.70;;;;;;5033427;28;20040;-66
2023/06/06 10:18:54;;;;;;;1.77;1.35;;;24.00;44.70;;;;;;5033278;28;20377;-65
2023/06/06 10:21:21;;;;;;;2.10;1.60;;;24.00;44.70;;;;;;5034878;28;20029;-65
2023/06/06 10:23:47;;;;;;;2.10;1.50;;;24.10;44.70;;;;;;5034282;28;20453;-66
2023/06/06 10:26:42;;;;;;;2.00;1.50;;;24.10;44.70;;;;;;5033593;28;20037;-66
2023/06/06 10:29:35;;;;;;;2.33;1.40;;;24.10;44.70;;;;;;5038265;28;20029;-66
2023/06/06 10:32:12;;;;;;;2.10;1.60;;;24.10;44.60;;;;;;4989385;28;20116;-66
2023/06/06 10:34:40;;;;;;;2.08;1.52;;;24.10;44.60;;;;;;5003649;28;20040;-66
2023/06/06 10:37:18;;;;;;;1.80;1.40;;;24.10;44.60;;;;;;5033751;28;20337;-66
2023/06/06 10:39:47;;;;;;;2.08;1.50;;;24.10;44.70;;;;;;5034662;28;20515;-65
2023/06/06 10:42:14;;;;;;;1.75;1.20;;;24.00;44.60;;;;;;5035034;28;20036;-66
2023/06/06 10:44:46;;;;;;;2.20;1.40;;;24.10;44.70;;;;;;5003460;28;20543;-66
2023/06/06 10:47:21;;;;;;;2.20;1.40;;;24.10;44.70;;;;;;5034784;28;20078;-65
2023/06/06 10:50:12;;;;;;;1.90;1.30;;;24.10;44.70;;;;;;5004598;28;20026;-66
2023/06/06 10:52:40;;;;;;;2.15;1.45;;;24.10;44.70;;;;;;5032010;28;20026;-65
2023/06/06 10:55:15;;;;;;;1.83;1.30;;;24.10;44.70;;;;;;5033275;28;20022;-66
2023/06/06 10:58:04;;;;;;;1.90;1.33;;;24.10;44.70;;;;;;5033627;28;20543;-65
2023/06/06 11:00:35;;;;;;;1.80;1.20;;;24.10;45.20;;;;;;5002931;28;20027;-66
2023/06/06 11:03:08;;;;;;;1.83;1.30;;;24.10;44.70;;;;;;5034800;28;20064;-66
2023/06/06 11:05:53;;;;;;;2.03;1.20;;;24.10;44.70;;;;;;5034014;28;20029;-66
2023/06/06 11:08:30;;;;;;;1.90;1.40;;;24.10;44.70;;;;;;5030559;28;20485;-66
2023/06/06 11:11:30;;;;;;;2.05;1.63;;;24.10;44.70;;;;;;5031422;28;20024;-66
2023/06/06 11:13:57;;;;;;;2.30;1.48;;;24.10;44.70;;;;;;5035955;28;20021;-66
2023/06/06 11:16:50;;;;;;;2.10;1.30;;;24.10;44.70;;;;;;5032180;28;20013;-66
2023/06/06 11:19:21;;;;;;;1.90;1.30;;;24.10;44.70;;;;;;5035452;28;20414;-66
2023/06/06 11:21:49;;;;;;;2.35;1.30;;;24.10;44.70;;;;;;5033518;28;20025;-66
2023/06/06 11:24:16;;;;;;;1.77;1.20;;;24.10;44.70;;;;;;5034207;28;20033;-67
2023/06/06 11:26:43;;;;;;;1.88;1.30;;;24.10;44.70;;;;;;5020113;28;20029;-66
2023/06/06 11:29:10;;;;;;;1.52;1.10;;;24.10;44.70;;;;;;5037674;28;20089;-66
2023/06/06 11:31:37;;;;;;;1.75;1.23;;;24.10;44.70;;;;;;5005185;28;20505;-65
2023/06/06 11:34:07;;;;;;;1.80;1.30;;;24.10;44.70;;;;;;5034607;28;20021;-65
2023/06/06 11:36:34;;;;;;;1.73;1.23;;;24.10;44.80;;;;;;5033012;28;20026;-65
2023/06/06 11:39:01;;;;;;;1.60;1.20;;;24.10;44.80;;;;;;5034448;28;20033;-65
2023/06/06 11:41:30;;;;;;;2.22;1.30;;;24.10;44.80;;;;;;5033812;28;20157;-65
2023/06/06 11:43:56;;;;;;;1.63;1.23;;;24.10;44.80;;;;;;5035268;28;20117;-65
2023/06/06 11:46:22;;;;;;;1.45;1.20;;;24.10;44.80;;;;;;5015364;28;20159;-65
2023/06/06 11:48:59;;;;;;;1.90;1.40;;;24.10;44.80;;;;;;5034239;28;20341;-65
2023/06/06 11:51:25;;;;;;;1.30;1.00;;;24.10;44.80;;;;;;5030043;28;20072;-65
2023/06/06 11:53:51;;;;;;;1.70;1.20;;;24.10;44.90;;;;;;5037588;28;20472;-65
2023/06/06 11:56:18;;;;;;;1.60;1.27;;;24.20;44.90;;;;;;5021191;28;20139;-65
2023/06/06 11:58:43;;;;;;;1.80;1.35;;;24.20;44.90;;;;;;5024888;28;20865;-66
2023/06/06 12:01:10;;;;;;;1.80;1.20;;;24.20;44.90;;;;;;5040135;28;20063;-65
2023/06/06 12:03:40;;;;;;;1.67;1.17;;;24.20;44.90;;;;;;5039831;28;20025;-66
2023/06/06 12:06:07;;;;;;;1.63;1.23;;;24.10;44.90;;;;;;5037412;28;20079;-66
2023/06/06 12:08:37;;;;;;;1.60;1.10;;;24.10;44.90;;;;;;5024108;28;20071;-66
2023/06/06 12:11:21;;;;;;;1.27;1.08;;;24.20;45.00;;;;;;5022014;28;20116;-65
2023/06/06 12:13:47;;;;;;;1.92;1.27;;;24.20;44.90;;;;;;5038227;28;20501;-66
2023/06/06 12:16:18;;;;;;;1.52;1.10;;;24.10;44.90;;;;;;5038544;28;20022;-66
2023/06/06 12:18:48;;;;;;;1.58;1.10;;;24.20;45.00;;;;;;5038816;28;20571;-65
2023/06/06 12:21:16;;;;;;;1.55;1.10;;;24.20;45.00;;;;;;5018754;28;20429;-66
2023/06/06 12:23:43;;;;;;;1.50;1.10;;;24.20;45.00;;;;;;5038019;28;20026;-66
2023/06/06 12:26:12;;;;;;;2.03;1.20;;;24.20;45.00;;;;;;5040835;28;20017;-66
2023/06/06 12:28:57;;;;;;;1.30;1.08;;;24.20;45.00;;;;;;5038910;28;20585;-66
2023/06/06 12:31:25;;;;;;;1.77;1.30;;;24.20;45.00;;;;;;5036291;28;20171;-66
2023/06/06 12:33:53;;;;;;;1.40;1.10;;;24.20;45.00;;;;;;5036475;28;20028;-65
2023/06/06 12:36:20;;;;;;;1.17;1.00;;;24.20;45.00;;;;;;5038056;28;20021;-66
2023/06/06 12:38:58;;;;;;;1.40;1.10;;;24.20;45.00;;;;;;5036832;28;20095;-65
2023/06/06 12:41:40;;;;;;;1.65;1.10;;;24.20;45.00;;;;;;5038500;28;20441;-65
2023/06/06 12:44:09;;;;;;;1.23;1.00;;;24.20;45.00;;;;;;5004691;28;20037;-65
2023/06/06 12:46:35;;;;;;;1.63;1.17;;;24.20;45.00;;;;;;5018671;28;20025;-66
2023/06/06 12:49:01;;;;;;;1.20;1.02;;;24.20;45.00;;;;;;5040691;28;20026;-66
2023/06/06 12:51:26;;;;;;;1.58;1.05;;;24.20;45.00;;;;;;5036376;28;20529;-65